createdAt,value
2019-03-03T00:01:12.344Z,78.45
2019-03-03T00:03:39.056Z,77.99
2019-03-03T00:06:05.936Z,77.71
2019-03-03T00:08:32.732Z,77.49
2019-03-03T00:10:59.454Z,76.91
2019-03-03T00:13:26.030Z,76.35
2019-03-03T00:15:52.713Z,76.43
2019-03-03T00:18:19.283Z,76.25
2019-03-03T00:20:45.874Z,75.56
2019-03-03T00:23:12.663Z,75.27
2019-03-03T00:25:39.945Z,74.63
2019-03-03T00:28:06.830Z,74.30
2019-03-03T00:30:40.959Z,74.29
2019-03-03T00:33:07.750Z,75.16
2019-03-03T00:35:34.577Z,74.14
2019-03-03T00:38:22.679Z,74.28
2019-03-03T00:41:11.977Z,74.34
2019-03-03T00:44:10.195Z,74.33
2019-03-03T00:47:08.544Z,74.66
2019-03-03T00:49:49.959Z,75.31
2019-03-03T00:52:34.328Z,75.26
2019-03-03T00:55:11.012Z,75.14
2019-03-03T00:57:57.301Z,75.22
2019-03-03T01:00:32.655Z,75.30
2019-03-03T01:03:13.852Z,75.63
2019-03-03T01:06:03.110Z,75.56
2019-03-03T01:08:58.311Z,75.64
2019-03-03T01:11:47.516Z,75.33
2019-03-03T01:14:21.569Z,75.72
2019-03-03T01:17:03.493Z,75.58
2019-03-03T01:19:49.719Z,75.79
2019-03-03T01:22:23.397Z,75.66
2019-03-03T01:24:55.428Z,75.94
2019-03-03T01:27:23.196Z,75.77
2019-03-03T01:29:49.966Z,76.15
2019-03-03T01:32:16.666Z,75.91
2019-03-03T01:34:43.370Z,75.41
2019-03-03T01:37:10.083Z,75.31
2019-03-03T01:39:36.858Z,75.30
2019-03-03T01:42:03.718Z,75.41
2019-03-03T01:44:30.407Z,75.76
2019-03-03T01:46:57.105Z,75.68
2019-03-03T01:49:24.180Z,75.39
2019-03-03T01:51:50.771Z,75.57
2019-03-03T01:54:17.438Z,75.41
2019-03-03T01:56:44.144Z,75.54
2019-03-03T01:59:10.955Z,75.39
2019-03-03T02:01:37.756Z,75.47
2019-03-03T02:04:04.724Z,75.35
2019-03-03T02:06:31.540Z,75.03
2019-03-03T02:08:58.213Z,74.76
2019-03-03T02:11:25.105Z,74.93
2019-03-03T02:13:52.095Z,74.64
2019-03-03T02:16:18.871Z,74.92
2019-03-03T02:18:45.758Z,74.29
2019-03-03T02:21:12.540Z,74.28
2019-03-03T02:23:39.337Z,73.93
2019-03-03T02:26:06.115Z,73.54
2019-03-03T02:28:32.820Z,73.60
2019-03-03T02:30:59.603Z,73.94
2019-03-03T02:33:26.397Z,73.32
2019-03-03T02:35:53.296Z,73.64
2019-03-03T02:38:20.001Z,73.41
2019-03-03T02:40:47.070Z,73.38
2019-03-03T02:43:13.873Z,73.62
2019-03-03T02:45:40.702Z,73.00
2019-03-03T02:48:07.384Z,72.46
2019-03-03T02:50:34.072Z,72.37
2019-03-03T02:53:00.799Z,72.19
2019-03-03T02:55:27.553Z,71.84
2019-03-03T02:57:54.634Z,71.85
2019-03-03T03:00:21.800Z,71.64
2019-03-03T03:02:49.936Z,70.30
2019-03-03T03:05:23.265Z,70.65
2019-03-03T03:07:57.511Z,70.50
2019-03-03T03:10:34.816Z,70.46
2019-03-03T03:13:06.548Z,69.95
2019-03-03T03:15:47.610Z,69.86
2019-03-03T03:18:24.094Z,69.96
2019-03-03T03:20:58.490Z,69.41
2019-03-03T03:23:43.725Z,69.37
2019-03-03T03:26:28.489Z,69.67
2019-03-03T03:29:14.879Z,68.64
2019-03-03T03:32:06.996Z,69.00
2019-03-03T03:34:44.693Z,68.98
2019-03-03T03:37:31.013Z,69.14
2019-03-03T03:40:29.185Z,69.26
2019-03-03T03:43:30.501Z,68.70
2019-03-03T03:46:21.459Z,68.87
2019-03-03T03:49:06.204Z,68.90
2019-03-03T03:51:51.842Z,68.67
2019-03-03T03:54:41.422Z,68.58
2019-03-03T03:57:17.983Z,68.65
2019-03-03T03:59:52.036Z,68.69
2019-03-03T04:02:41.123Z,68.49
2019-03-03T04:05:33.569Z,67.92
2019-03-03T04:08:04.854Z,67.97
2019-03-03T04:10:38.412Z,67.57
2019-03-03T04:13:24.873Z,67.02
2019-03-03T04:16:06.903Z,67.41
2019-03-03T04:18:55.646Z,66.87
2019-03-03T04:21:32.889Z,67.21
2019-03-03T04:24:17.519Z,67.26
2019-03-03T04:26:58.754Z,67.09
2019-03-03T04:29:36.048Z,67.32
2019-03-03T04:32:25.040Z,67.27
2019-03-03T04:35:05.524Z,67.22
2019-03-03T04:37:48.764Z,67.00
2019-03-03T04:40:33.984Z,67.19
2019-03-03T04:43:24.239Z,67.11
2019-03-03T04:45:59.696Z,67.41
2019-03-03T04:48:35.508Z,67.24
2019-03-03T04:51:21.933Z,67.14
2019-03-03T04:54:08.368Z,66.96
2019-03-03T04:57:06.932Z,66.87
2019-03-03T04:59:55.957Z,67.23
2019-03-03T05:02:43.214Z,67.76
2019-03-03T05:05:28.007Z,67.70
2019-03-03T05:08:12.530Z,68.10
2019-03-03T05:11:05.055Z,67.92
2019-03-03T05:13:49.014Z,68.00
2019-03-03T05:16:47.117Z,68.02
2019-03-03T05:19:24.702Z,68.08
2019-03-03T05:21:51.390Z,68.27
2019-03-03T05:24:18.069Z,67.74
2019-03-03T05:26:44.757Z,67.75
2019-03-03T05:29:11.452Z,67.60
2019-03-03T05:31:38.184Z,67.90
2019-03-03T05:34:04.920Z,68.19
2019-03-03T05:36:31.633Z,68.02
2019-03-03T05:38:58.198Z,68.13
2019-03-03T05:41:24.874Z,68.21
2019-03-03T05:43:51.591Z,68.33
2019-03-03T05:46:18.417Z,68.16
2019-03-03T05:48:45.225Z,68.04
2019-03-03T05:51:12.018Z,67.78
2019-03-03T05:53:38.893Z,68.16
2019-03-03T05:56:05.711Z,67.84
2019-03-03T05:58:32.417Z,67.90
2019-03-03T06:00:59.008Z,68.16
2019-03-03T06:03:25.718Z,68.34
2019-03-03T06:05:52.516Z,68.29
2019-03-03T06:08:19.195Z,68.23
2019-03-03T06:10:46.161Z,68.52
2019-03-03T06:13:12.845Z,68.73
2019-03-03T06:15:39.626Z,68.93
2019-03-03T06:18:06.316Z,69.36
2019-03-03T06:20:33.107Z,69.38
2019-03-03T06:22:59.692Z,69.65
2019-03-03T06:25:26.533Z,70.34
2019-03-03T06:27:53.329Z,70.32
2019-03-03T06:30:20.188Z,70.29
2019-03-03T06:32:47.053Z,70.24
2019-03-03T06:35:13.844Z,70.31
2019-03-03T06:37:40.660Z,70.11
2019-03-03T06:40:08.297Z,69.51
2019-03-03T06:42:35.191Z,69.42
2019-03-03T06:45:02.009Z,69.57
2019-03-03T06:47:29.104Z,69.52
2019-03-03T06:49:55.820Z,69.45
2019-03-03T06:52:22.606Z,69.58
2019-03-03T06:54:49.203Z,69.39
2019-03-03T06:57:15.923Z,69.20
2019-03-03T06:59:42.645Z,69.33
2019-03-03T07:02:09.497Z,69.13
2019-03-03T07:04:36.163Z,69.31
2019-03-03T07:07:02.971Z,69.21
2019-03-03T07:09:29.589Z,69.37
2019-03-03T07:11:56.257Z,69.15
2019-03-03T07:14:23.064Z,69.43
2019-03-03T07:16:49.868Z,69.62
2019-03-03T07:19:16.543Z,69.36
2019-03-03T07:21:43.236Z,70.02
2019-03-03T07:24:09.964Z,69.90
2019-03-03T07:26:36.740Z,70.21
2019-03-03T07:29:03.630Z,70.48
2019-03-03T07:31:30.341Z,71.04
2019-03-03T07:33:59.717Z,70.71
2019-03-03T07:36:26.392Z,71.19
2019-03-03T07:38:53.091Z,71.26
2019-03-03T07:41:19.936Z,71.23
2019-03-03T07:43:46.652Z,70.64
2019-03-03T07:46:13.258Z,71.17
2019-03-03T07:48:39.965Z,71.71
2019-03-03T07:51:06.667Z,72.53
2019-03-03T07:53:33.377Z,73.42
2019-03-03T07:56:01.338Z,74.55
2019-03-03T07:58:30.768Z,75.19
2019-03-03T08:00:57.535Z,76.73
2019-03-03T08:03:24.393Z,76.26
2019-03-03T08:05:51.140Z,75.95
2019-03-03T08:08:17.950Z,76.34
2019-03-03T08:10:44.736Z,76.55
2019-03-03T08:13:11.578Z,77.18
2019-03-03T08:15:38.390Z,78.27
2019-03-03T08:18:05.198Z,78.62
2019-03-03T08:20:32.047Z,79.33
2019-03-03T08:22:58.849Z,79.71
2019-03-03T08:25:25.417Z,79.83
2019-03-03T08:27:52.222Z,79.76
2019-03-03T08:30:19.033Z,80.43
2019-03-03T08:32:45.802Z,80.91
2019-03-03T08:35:13.223Z,80.49
2019-03-03T08:37:40.020Z,80.27
2019-03-03T08:40:07.319Z,81.30
2019-03-03T08:43:08.522Z,82.25
2019-03-03T08:45:57.555Z,82.62
2019-03-03T08:48:41.042Z,83.89
2019-03-03T08:51:26.084Z,84.16
2019-03-03T08:54:10.356Z,85.21
2019-03-03T08:56:56.843Z,85.65
2019-03-03T08:59:43.300Z,85.75
2019-03-03T09:02:32.362Z,85.98
2019-03-03T09:05:24.347Z,86.60
2019-03-03T09:08:07.990Z,86.33
2019-03-03T09:10:53.122Z,86.95
2019-03-03T09:13:30.045Z,86.83
2019-03-03T09:16:25.229Z,87.16
2019-03-03T09:19:19.453Z,87.58
2019-03-03T09:22:08.826Z,87.18
2019-03-03T09:25:01.372Z,87.83
2019-03-03T09:27:37.803Z,88.54
2019-03-03T09:30:25.201Z,88.50
2019-03-03T09:33:03.240Z,88.08
2019-03-03T09:35:38.087Z,88.36
2019-03-03T09:38:16.193Z,88.14
2019-03-03T09:41:08.378Z,87.91
2019-03-03T09:43:57.429Z,88.11
2019-03-03T09:46:46.707Z,87.88
2019-03-03T09:49:27.970Z,88.15
2019-03-03T09:52:21.700Z,87.97
2019-03-03T09:55:10.906Z,88.44
2019-03-03T09:57:59.960Z,88.49
2019-03-03T10:00:58.312Z,88.99
2019-03-03T10:03:40.342Z,88.92
2019-03-03T10:06:26.234Z,89.07
2019-03-03T10:09:30.584Z,89.16
2019-03-03T10:12:08.456Z,89.25
2019-03-03T10:14:54.944Z,88.86
2019-03-03T10:17:32.751Z,89.30
2019-03-03T10:20:14.791Z,89.35
2019-03-03T10:23:00.065Z,89.23
2019-03-03T10:25:45.068Z,89.41
2019-03-03T10:28:46.609Z,89.01
2019-03-03T10:31:31.357Z,89.02
2019-03-03T10:34:08.812Z,89.09
2019-03-03T10:36:57.823Z,89.15
2019-03-03T10:39:44.169Z,88.42
2019-03-03T10:42:19.018Z,88.35
2019-03-03T10:45:20.365Z,88.43
2019-03-03T10:48:06.823Z,88.40
2019-03-03T10:50:51.441Z,88.95
2019-03-03T10:53:46.929Z,88.38
2019-03-03T10:56:30.687Z,88.51
2019-03-03T10:59:23.080Z,88.69
2019-03-03T11:02:14.365Z,88.51
2019-03-03T11:05:12.879Z,88.83
2019-03-03T11:07:59.304Z,88.60
2019-03-03T11:10:57.600Z,88.93
2019-03-03T11:13:32.058Z,88.83
2019-03-03T11:16:12.011Z,89.20
2019-03-03T11:18:56.028Z,88.59
2019-03-03T11:21:30.271Z,87.95
2019-03-03T11:24:10.300Z,88.53
2019-03-03T11:27:02.568Z,88.32
2019-03-03T11:29:48.907Z,88.68
2019-03-03T11:32:24.691Z,88.78
2019-03-03T11:35:03.361Z,88.51
2019-03-03T11:37:52.361Z,87.98
2019-03-03T11:40:37.371Z,88.09
2019-03-03T11:43:22.029Z,88.19
2019-03-03T11:45:58.177Z,88.00
2019-03-03T11:48:44.629Z,88.04
2019-03-03T11:51:36.816Z,88.28
2019-03-03T11:54:14.559Z,88.27
2019-03-03T11:56:50.799Z,88.14
2019-03-03T11:59:39.906Z,88.31
2019-03-03T12:02:23.106Z,87.72
2019-03-03T12:05:15.409Z,88.39
2019-03-03T12:07:55.192Z,88.62
2019-03-03T12:10:40.548Z,88.41
2019-03-03T12:13:24.100Z,88.03
2019-03-03T12:16:08.888Z,87.41
2019-03-03T12:18:58.201Z,87.25
2019-03-03T12:21:43.069Z,87.59
2019-03-03T12:24:32.432Z,87.46
2019-03-03T12:27:19.594Z,87.07
2019-03-03T12:29:56.890Z,87.18
2019-03-03T12:32:42.180Z,87.33
2019-03-03T12:35:13.909Z,87.45
2019-03-03T12:38:02.967Z,87.08
2019-03-03T12:40:57.836Z,87.69
2019-03-03T12:43:44.722Z,87.67
2019-03-03T12:46:17.263Z,87.50
2019-03-03T12:49:15.500Z,87.15
2019-03-03T12:52:07.520Z,87.33
2019-03-03T12:54:53.977Z,87.65
2019-03-03T12:57:35.163Z,87.76
2019-03-03T13:00:08.817Z,87.56
2019-03-03T13:03:04.363Z,87.54
2019-03-03T13:05:44.025Z,87.83
2019-03-03T13:08:28.748Z,87.76
2019-03-03T13:11:27.150Z,87.14
2019-03-03T13:14:22.344Z,87.10
2019-03-03T13:16:57.409Z,87.69
2019-03-03T13:19:34.235Z,86.82
2019-03-03T13:22:26.596Z,87.54
2019-03-03T13:25:00.684Z,86.58
2019-03-03T13:28:01.870Z,86.84
2019-03-03T13:30:48.252Z,86.71
2019-03-03T13:33:33.051Z,84.74
2019-03-03T13:36:18.061Z,84.97
2019-03-03T13:39:10.557Z,85.37
2019-03-03T13:41:49.731Z,86.20
2019-03-03T13:44:16.548Z,85.72
2019-03-03T13:46:43.310Z,85.71
2019-03-03T13:49:10.012Z,85.13
2019-03-03T13:51:36.796Z,84.86
2019-03-03T13:54:03.874Z,85.07
2019-03-03T13:56:30.684Z,84.73
2019-03-03T13:58:57.448Z,84.82
2019-03-03T14:01:24.347Z,84.37
2019-03-03T14:03:51.120Z,84.65
2019-03-03T14:06:20.350Z,84.68
2019-03-03T14:08:47.048Z,83.89
2019-03-03T14:11:13.949Z,83.09
2019-03-03T14:13:40.819Z,83.81
2019-03-03T14:16:07.561Z,83.81
2019-03-03T14:18:34.745Z,83.92
2019-03-03T14:21:01.372Z,83.39
2019-03-03T14:23:28.134Z,82.55
2019-03-03T14:25:54.931Z,83.57
2019-03-03T14:28:21.602Z,83.92
2019-03-03T14:30:48.443Z,84.29
2019-03-03T14:33:15.218Z,84.78
2019-03-03T14:35:42.017Z,84.95
2019-03-03T14:38:08.799Z,84.84
2019-03-03T14:40:35.759Z,82.94
2019-03-03T14:43:02.529Z,83.69
2019-03-03T14:45:29.354Z,84.36
2019-03-03T14:47:56.109Z,83.23
2019-03-03T14:50:22.901Z,84.18
2019-03-03T14:52:49.589Z,83.79
2019-03-03T14:55:17.525Z,84.58
2019-03-03T14:57:44.723Z,85.04
2019-03-03T15:00:18.065Z,85.17
2019-03-03T15:02:44.844Z,84.32
2019-03-03T15:05:11.518Z,85.32
2019-03-03T15:07:38.346Z,84.92
2019-03-03T15:10:05.623Z,84.98
2019-03-03T15:12:32.323Z,85.23
2019-03-03T15:14:59.120Z,85.00
2019-03-03T15:17:25.994Z,85.79
2019-03-03T15:20:12.287Z,85.38
2019-03-03T15:22:39.227Z,86.15
2019-03-03T15:25:06.546Z,85.87
2019-03-03T15:27:33.341Z,86.17
2019-03-03T15:30:00.008Z,85.08
2019-03-03T15:32:26.727Z,85.88
2019-03-03T15:34:53.421Z,86.16
2019-03-03T15:37:20.237Z,86.49
2019-03-03T15:39:47.037Z,86.62
2019-03-03T15:42:13.745Z,86.57
2019-03-03T15:44:40.532Z,86.41
2019-03-03T15:47:07.402Z,86.98
2019-03-03T15:49:34.244Z,86.94
2019-03-03T15:52:01.089Z,87.41
2019-03-03T15:54:27.782Z,87.57
2019-03-03T15:56:54.451Z,87.77
2019-03-03T15:59:21.174Z,87.56
2019-03-03T16:01:47.965Z,87.70
2019-03-03T16:04:14.852Z,87.03
2019-03-03T16:06:41.641Z,86.98
2019-03-03T16:09:10.925Z,86.70
2019-03-03T16:11:37.623Z,86.49
2019-03-03T16:14:04.426Z,86.58
2019-03-03T16:16:31.146Z,86.53
2019-03-03T16:18:57.864Z,86.42
2019-03-03T16:21:24.669Z,85.98
2019-03-03T16:23:51.472Z,86.44
2019-03-03T16:26:18.160Z,86.80
2019-03-03T16:28:44.987Z,85.44
2019-03-03T16:31:11.664Z,85.72
2019-03-03T16:33:38.493Z,85.98
2019-03-03T16:36:05.513Z,86.02
2019-03-03T16:38:32.243Z,86.41
2019-03-03T16:40:59.030Z,86.27
2019-03-03T16:43:25.760Z,85.84
2019-03-03T16:45:52.536Z,85.97
2019-03-03T16:48:19.276Z,85.27
2019-03-03T16:50:45.966Z,84.76
2019-03-03T16:53:12.780Z,85.39
2019-03-03T16:55:39.510Z,85.28
2019-03-03T16:58:06.718Z,84.84
2019-03-03T17:00:33.630Z,84.97
2019-03-03T17:03:00.520Z,84.78
2019-03-03T17:05:27.329Z,84.69
2019-03-03T17:07:54.269Z,84.36
2019-03-03T17:10:21.106Z,83.87
2019-03-03T17:12:48.004Z,83.11
2019-03-03T17:15:16.581Z,82.57
2019-03-03T17:17:43.387Z,83.09
2019-03-03T17:20:10.193Z,81.90
2019-03-03T17:22:36.987Z,82.38
2019-03-03T17:25:06.853Z,82.31
2019-03-03T17:27:33.650Z,82.18
2019-03-03T17:30:00.466Z,81.78
2019-03-03T17:32:27.040Z,81.50
2019-03-03T17:34:54.542Z,80.75
2019-03-03T17:37:21.209Z,81.24
2019-03-03T17:39:47.922Z,80.09
2019-03-03T17:42:14.626Z,80.38
2019-03-03T17:44:41.459Z,80.02
2019-03-03T17:47:08.252Z,79.61
2019-03-03T17:49:34.917Z,79.50
2019-03-03T17:52:01.701Z,79.32
2019-03-03T17:54:28.553Z,78.77
2019-03-03T17:56:55.256Z,79.10
2019-03-03T17:59:41.574Z,78.62
2019-03-03T18:02:08.353Z,78.99
2019-03-03T18:04:35.053Z,79.23
2019-03-03T18:07:01.870Z,79.12
2019-03-03T18:09:28.654Z,78.42
2019-03-03T18:11:55.471Z,78.68
2019-03-03T18:14:22.142Z,78.73
2019-03-03T18:16:48.968Z,78.86
2019-03-03T18:19:15.774Z,78.74
2019-03-03T18:21:42.581Z,77.92
2019-03-03T18:24:09.382Z,78.64
2019-03-03T18:26:36.101Z,78.13
2019-03-03T18:29:03.779Z,77.72
2019-03-03T18:31:30.677Z,77.69
2019-03-03T18:33:57.413Z,77.32
2019-03-03T18:36:24.111Z,76.45
2019-03-03T18:38:50.931Z,76.24
2019-03-03T18:41:17.711Z,76.30
2019-03-03T18:43:44.461Z,76.41
2019-03-03T18:46:11.271Z,76.33
2019-03-03T18:48:38.110Z,76.46
2019-03-03T18:51:04.901Z,76.03
2019-03-03T18:53:31.603Z,76.19
2019-03-03T18:55:58.305Z,76.16
2019-03-03T18:58:25.098Z,75.50
2019-03-03T19:00:51.892Z,75.25
2019-03-03T19:03:18.699Z,74.22
2019-03-03T19:05:55.173Z,74.47
2019-03-03T19:08:14.200Z,74.91
2019-03-03T19:10:41.025Z,75.35
2019-03-03T19:13:07.832Z,73.87
2019-03-03T19:15:34.615Z,74.68
2019-03-03T19:18:01.453Z,74.80
2019-03-03T19:20:28.239Z,74.02
2019-03-03T19:22:55.168Z,74.08
2019-03-03T19:25:22.347Z,74.40
2019-03-03T19:27:49.140Z,73.74
2019-03-03T19:30:20.634Z,73.42
2019-03-03T19:32:53.222Z,73.36
2019-03-03T19:35:20.156Z,72.67
2019-03-03T19:37:46.962Z,72.43
2019-03-03T19:40:13.903Z,71.93
2019-03-03T19:42:40.772Z,72.96
2019-03-03T19:45:11.988Z,72.97
2019-03-03T19:47:38.673Z,72.78
2019-03-03T19:50:07.076Z,72.70
2019-03-03T19:52:33.968Z,72.66
2019-03-03T19:55:00.597Z,71.43
2019-03-03T19:57:27.398Z,71.25
2019-03-03T19:59:54.211Z,71.70
2019-03-03T20:02:21.022Z,71.55
2019-03-03T20:04:47.843Z,70.66
2019-03-03T20:07:14.645Z,70.99
2019-03-03T20:09:41.465Z,70.62
2019-03-03T20:12:08.142Z,70.41
2019-03-03T20:14:34.815Z,71.06
2019-03-03T20:17:01.634Z,70.98
2019-03-03T20:19:28.339Z,70.84
2019-03-03T20:21:54.919Z,71.37
2019-03-03T20:24:21.717Z,71.48
2019-03-03T20:26:48.515Z,70.97
2019-03-03T20:29:15.288Z,70.97
2019-03-03T20:31:41.996Z,70.08
2019-03-03T20:34:08.791Z,69.66
2019-03-03T20:36:35.829Z,70.35
2019-03-03T20:39:05.393Z,70.78
2019-03-03T20:41:32.192Z,70.13
2019-03-03T20:43:58.882Z,69.54
2019-03-03T20:46:25.575Z,69.94
2019-03-03T20:48:52.260Z,69.92
2019-03-03T20:51:19.053Z,70.20
2019-03-03T20:53:45.768Z,69.73
2019-03-03T20:56:12.573Z,69.36
2019-03-03T20:58:39.351Z,69.53
2019-03-03T21:01:06.151Z,69.89
2019-03-03T21:03:32.821Z,70.15
2019-03-03T21:05:59.516Z,70.13
2019-03-03T21:08:26.185Z,70.48
2019-03-03T21:10:52.971Z,70.51
2019-03-03T21:13:19.673Z,70.41
2019-03-03T21:15:46.375Z,70.41
2019-03-03T21:18:14.366Z,70.40
2019-03-03T21:20:41.075Z,70.91
2019-03-03T21:23:07.982Z,70.62
2019-03-03T21:25:34.687Z,70.61
2019-03-03T21:28:01.483Z,70.82
2019-03-03T21:30:28.275Z,70.38
2019-03-03T21:32:55.097Z,71.00
2019-03-03T21:35:22.322Z,70.19
2019-03-03T21:37:49.431Z,70.06
2019-03-03T21:40:16.984Z,69.87
2019-03-03T21:42:43.894Z,69.36
2019-03-03T21:45:12.349Z,68.64
2019-03-03T21:47:39.181Z,69.56
2019-03-03T21:50:08.020Z,69.01
2019-03-03T21:52:34.724Z,70.88
2019-03-03T21:55:01.422Z,73.06
2019-03-03T21:57:28.088Z,74.37
2019-03-03T21:59:54.689Z,75.02
2019-03-03T22:02:21.306Z,75.07
2019-03-03T22:04:47.926Z,75.22
2019-03-03T22:07:14.619Z,75.59
2019-03-03T22:09:41.527Z,74.72
2019-03-03T22:12:08.228Z,75.81
2019-03-03T22:14:35.092Z,76.10
2019-03-03T22:17:01.807Z,76.51
2019-03-03T22:19:28.511Z,75.01
2019-03-03T22:21:55.243Z,76.17
2019-03-03T22:24:21.951Z,75.66
2019-03-03T22:26:48.746Z,74.61
2019-03-03T22:29:15.470Z,74.59
2019-03-03T22:34:08.587Z,74.29
2019-03-03T22:36:35.299Z,73.82
2019-03-03T22:39:02.579Z,73.94
2019-03-03T22:41:29.281Z,72.82
2019-03-03T22:43:56.073Z,71.82
2019-03-03T22:46:22.865Z,71.71
2019-03-03T22:48:49.660Z,71.40
2019-03-03T22:51:16.368Z,71.40
2019-03-03T22:53:42.939Z,70.77
2019-03-03T22:56:09.619Z,71.00
2019-03-03T22:58:36.322Z,71.70
2019-03-03T23:01:13.322Z,71.43
2019-03-03T23:04:04.765Z,70.72
2019-03-03T23:06:42.038Z,70.47
2019-03-03T23:09:47.899Z,70.81
2019-03-03T23:12:38.012Z,70.80
2019-03-03T23:15:14.774Z,70.15
2019-03-03T23:18:03.540Z,70.47
2019-03-03T23:20:57.019Z,71.09
2019-03-03T23:23:44.180Z,71.09
2019-03-03T23:26:16.676Z,70.57
2019-03-03T23:28:40.429Z,70.87
2019-03-03T23:31:07.216Z,70.45
2019-03-03T23:33:34.029Z,70.21
2019-03-03T23:36:00.730Z,70.44
2019-03-03T23:38:27.554Z,70.31
2019-03-03T23:40:54.239Z,70.94
2019-03-03T23:43:20.935Z,70.20
2019-03-03T23:45:47.810Z,70.63
2019-03-03T23:48:14.497Z,70.05
2019-03-03T23:50:41.284Z,70.22
2019-03-03T23:53:08.101Z,71.02
2019-03-03T23:55:34.915Z,70.68
2019-03-03T23:58:01.602Z,70.41
